Time;durP1;ratioP1;P1;durP2;ratioP2;P2;SDS_P1;SDS_P2;PMS_P1;PMS_P2;Temp;Humidity;BMP_temperature;BMP_pressure;BME280_temperature;BME280_humidity;BME280_pressure;Samples;Min_cycle;Max_cycle;Signal;HPM_P1;HPM_P2
2023/05/04 00:00:06;;;;;;;13.83;8.20;;;;;;;;;;5066117;28;20049;-61
2023/05/04 00:02:32;;;;;;;14.17;7.63;;;;;;;;;;5069812;28;20044;-60
2023/05/04 00:04:58;;;;;;;15.70;8.73;;;;;;;;;;5070214;28;20051;-61
2023/05/04 00:07:24;;;;;;;14.07;7.73;;;;;;;;;;5062302;28;20060;-60
2023/05/04 00:09:50;;;;;;;22.33;9.17;;;;;;;;;;5054089;28;20080;-60
2023/05/04 00:12:17;;;;;;;19.50;8.67;;;;;;;;;;5069013;28;20418;-60
2023/05/04 00:14:43;;;;;;;15.90;8.20;;;;;;;;;;5070313;28;20089;-60
2023/05/04 00:17:09;;;;;;;18.17;8.50;;;;;;;;;;5068828;28;20052;-60
2023/05/04 00:19:38;;;;;;;14.47;7.93;;;;;;;;;;5051818;28;20072;-60
2023/05/04 00:22:05;;;;;;;15.37;7.77;;;;;;;;;;5066674;28;20066;-60
2023/05/04 00:24:31;;;;;;;13.67;8.17;;;;;;;;;;5062140;28;20099;-60
2023/05/04 00:26:57;;;;;;;15.27;8.90;;;;;;;;;;5050382;28;20045;-60
2023/05/04 00:29:23;;;;;;;14.50;8.37;;;;;;;;;;5050083;28;20053;-60
2023/05/04 00:31:49;;;;;;;14.17;8.47;;;;;;;;;;5050273;28;20057;-60
2023/05/04 00:34:15;;;;;;;17.90;8.73;;;;;;;;;;5049877;28;20049;-60
2023/05/04 00:36:42;;;;;;;16.10;8.97;;;;;;;;;;5062804;28;20502;-60
2023/05/04 00:39:08;;;;;;;17.77;8.80;;;;;;;;;;5069631;28;20036;-60
2023/05/04 00:41:34;;;;;;;21.67;8.67;;;;;;;;;;5069954;28;20101;-60
2023/05/04 00:44:03;;;;;;;16.27;9.07;;;;;;;;;;5066143;28;20094;-60
2023/05/04 00:46:29;;;;;;;17.37;8.57;;;;;;;;;;5070297;28;20072;-60
2023/05/04 00:48:55;;;;;;;14.87;9.53;;;;;;;;;;5066580;28;20439;-60
2023/05/04 00:51:22;;;;;;;21.10;8.93;;;;;;;;;;5049182;28;20052;-60
2023/05/04 00:53:49;;;;;;;16.33;8.43;;;;;;;;;;5050810;28;20095;-60
2023/05/04 00:56:16;;;;;;;21.23;9.03;;;;;;;;;;5059713;28;20056;-60
2023/05/04 00:58:42;;;;;;;20.07;9.90;;;;;;;;;;5069219;28;20403;-60
2023/05/04 01:01:08;;;;;;;16.67;9.60;;;;;;;;;;5069398;28;20044;-60
2023/05/04 01:03:34;;;;;;;24.73;9.53;;;;;;;;;;5067928;28;20044;-60
2023/05/04 01:06:19;;;;;;;17.23;8.93;;;;;;;;;;5068607;28;20049;-60
2023/05/04 01:08:47;;;;;;;20.17;9.17;;;;;;;;;;5068414;28;20487;-60
2023/05/04 01:11:27;;;;;;;38.57;10.50;;;;;;;;;;5063848;28;20773;-60
2023/05/04 01:13:53;;;;;;;17.47;9.90;;;;;;;;;;5068461;28;20623;-60
2023/05/04 01:16:20;;;;;;;13.07;8.73;;;;;;;;;;5068852;28;20056;-60
2023/05/04 01:18:46;;;;;;;23.77;11.07;;;;;;;;;;5064434;28;20594;-60
2023/05/04 01:21:12;;;;;;;16.23;8.93;;;;;;;;;;5064018;28;20044;-60
2023/05/04 01:23:38;;;;;;;21.83;9.50;;;;;;;;;;5053305;28;20055;-61
2023/05/04 01:26:16;;;;;;;19.70;8.13;;;;;;;;;;5049263;28;20495;-60
2023/05/04 01:28:45;;;;;;;18.37;10.23;;;;;;;;;;5056503;28;20045;-60
2023/05/04 01:31:15;;;;;;;18.63;10.73;;;;;;;;;;5068646;28;20060;-60
2023/05/04 01:33:42;;;;;;;16.63;9.43;;;;;;;;;;5067980;28;20129;-60
2023/05/04 01:36:09;;;;;;;20.90;8.80;;;;;;;;;;5066933;28;20040;-60
2023/05/04 01:38:35;;;;;;;17.77;9.40;;;;;;;;;;5068750;28;20060;-60
2023/05/04 01:41:01;;;;;;;18.97;9.13;;;;;;;;;;5064069;28;20048;-60
2023/05/04 01:43:28;;;;;;;25.07;11.03;;;;;;;;;;5049386;28;20506;-60
2023/05/04 01:45:54;;;;;;;17.80;9.70;;;;;;;;;;5057913;28;20048;-60
2023/05/04 01:48:20;;;;;;;19.07;9.37;;;;;;;;;;5067339;28;20047;-60
2023/05/04 01:50:46;;;;;;;21.33;9.40;;;;;;;;;;5056608;28;20059;-60
2023/05/04 01:53:12;;;;;;;20.93;8.57;;;;;;;;;;5068078;28;20040;-60
2023/05/04 01:55:38;;;;;;;20.87;10.77;;;;;;;;;;5062860;28;20056;-60
2023/05/04 01:58:04;;;;;;;20.70;8.13;;;;;;;;;;5054866;28;20053;-61
2023/05/04 02:00:30;;;;;;;17.60;9.43;;;;;;;;;;5062411;28;20477;-61
2023/05/04 02:02:56;;;;;;;18.17;9.63;;;;;;;;;;5059171;28;20052;-60
2023/05/04 02:05:22;;;;;;;21.23;10.00;;;;;;;;;;5056077;28;20076;-60
2023/05/04 02:07:48;;;;;;;24.90;10.47;;;;;;;;;;5048638;28;20037;-61
2023/05/04 02:10:14;;;;;;;18.20;9.27;;;;;;;;;;5048260;28;20056;-60
2023/05/04 02:12:41;;;;;;;19.57;9.70;;;;;;;;;;5068873;28;20041;-60
2023/05/04 02:15:08;;;;;;;27.20;10.30;;;;;;;;;;5068227;28;20040;-60
2023/05/04 02:17:34;;;;;;;19.10;9.60;;;;;;;;;;5048755;28;20783;-60
2023/05/04 02:20:00;;;;;;;22.17;10.13;;;;;;;;;;5048392;28;20052;-60
2023/05/04 02:22:26;;;;;;;25.03;10.13;;;;;;;;;;5048169;28;20496;-60
2023/05/04 02:24:52;;;;;;;18.53;9.87;;;;;;;;;;5048606;28;20530;-60
2023/05/04 02:27:18;;;;;;;17.70;10.07;;;;;;;;;;5048618;28;20037;-60
2023/05/04 02:29:44;;;;;;;27.73;10.87;;;;;;;;;;5052204;28;20393;-61
2023/05/04 02:32:10;;;;;;;19.70;10.40;;;;;;;;;;5066337;28;20519;-60
2023/05/04 02:34:36;;;;;;;18.50;10.67;;;;;;;;;;5068262;28;20106;-60
2023/05/04 02:37:03;;;;;;;20.30;10.00;;;;;;;;;;5065266;28;20049;-60
2023/05/04 02:39:29;;;;;;;22.00;10.90;;;;;;;;;;5053832;28;20052;-60
2023/05/04 02:41:55;;;;;;;23.23;10.47;;;;;;;;;;5056567;28;20052;-60
2023/05/04 02:44:21;;;;;;;21.37;10.87;;;;;;;;;;5068766;28;20049;-60
2023/05/04 02:46:47;;;;;;;23.23;12.10;;;;;;;;;;5056620;28;20423;-60
2023/05/04 02:49:13;;;;;;;24.40;10.90;;;;;;;;;;5047718;28;20146;-60
2023/05/04 02:51:40;;;;;;;23.37;10.30;;;;;;;;;;5047881;28;20044;-60
2023/05/04 02:54:07;;;;;;;21.50;10.80;;;;;;;;;;5047840;28;20466;-60
2023/05/04 02:56:33;;;;;;;22.70;10.77;;;;;;;;;;5052964;28;20072;-60
2023/05/04 02:58:59;;;;;;;19.03;10.73;;;;;;;;;;5069125;28;20052;-60
2023/05/04 03:01:25;;;;;;;25.53;10.30;;;;;;;;;;5068476;28;20499;-60
2023/05/04 03:03:51;;;;;;;27.57;11.47;;;;;;;;;;5072139;28;20052;-60
2023/05/04 03:06:17;;;;;;;23.47;11.27;;;;;;;;;;5070783;28;20041;-61
2023/05/04 03:08:43;;;;;;;20.17;10.80;;;;;;;;;;5068914;28;20076;-61
2023/05/04 03:11:09;;;;;;;21.63;11.80;;;;;;;;;;5064908;28;20518;-60
2023/05/04 03:13:35;;;;;;;20.60;11.07;;;;;;;;;;5069751;28;20257;-61
2023/05/04 03:16:01;;;;;;;23.13;11.33;;;;;;;;;;5071628;28;20040;-60
2023/05/04 03:18:27;;;;;;;22.77;11.27;;;;;;;;;;5070470;28;20048;-61
2023/05/04 03:20:53;;;;;;;22.87;11.43;;;;;;;;;;5062706;28;20410;-60
2023/05/04 03:23:19;;;;;;;23.37;12.17;;;;;;;;;;5069731;28;20067;-60
2023/05/04 03:25:45;;;;;;;18.33;10.80;;;;;;;;;;5072339;28;20052;-60
2023/05/04 03:28:12;;;;;;;23.33;11.60;;;;;;;;;;5055930;28;20041;-60
2023/05/04 03:30:38;;;;;;;17.60;11.03;;;;;;;;;;5051242;28;20123;-60
2023/05/04 03:33:04;;;;;;;23.17;10.37;;;;;;;;;;5059204;28;20044;-60
2023/05/04 03:35:30;;;;;;;19.23;10.97;;;;;;;;;;5052279;28;20049;-60
2023/05/04 03:37:56;;;;;;;18.93;10.53;;;;;;;;;;5051567;28;20048;-60
2023/05/04 03:40:23;;;;;;;23.50;12.67;;;;;;;;;;5052601;28;20049;-60
2023/05/04 03:42:50;;;;;;;22.13;11.43;;;;;;;;;;5051486;28;20529;-60
2023/05/04 03:45:16;;;;;;;22.43;11.87;;;;;;;;;;5057715;28;20040;-60
2023/05/04 03:47:42;;;;;;;22.97;11.33;;;;;;;;;;5072645;28;20041;-60
2023/05/04 03:50:08;;;;;;;22.63;11.43;;;;;;;;;;5066657;28;20474;-60
2023/05/04 03:52:35;;;;;;;21.77;10.97;;;;;;;;;;5062837;28;20260;-60
2023/05/04 03:55:01;;;;;;;20.87;10.93;;;;;;;;;;5072145;28;20040;-61
2023/05/04 03:57:27;;;;;;;25.80;11.87;;;;;;;;;;5059557;28;20478;-60
2023/05/04 03:59:53;;;;;;;19.97;11.03;;;;;;;;;;5064018;28;20036;-60
2023/05/04 04:02:19;;;;;;;27.87;12.00;;;;;;;;;;5070265;28;20059;-61
2023/05/04 04:04:45;;;;;;;19.90;11.07;;;;;;;;;;5072057;28;20045;-60
2023/05/04 04:07:11;;;;;;;29.27;11.30;;;;;;;;;;5069306;28;20063;-60
2023/05/04 04:09:37;;;;;;;22.57;11.47;;;;;;;;;;5060109;28;20079;-60
2023/05/04 04:12:03;;;;;;;28.43;12.40;;;;;;;;;;5051172;28;20045;-60
2023/05/04 04:14:29;;;;;;;19.80;11.20;;;;;;;;;;5052054;28;20048;-60
2023/05/04 04:16:55;;;;;;;23.00;11.47;;;;;;;;;;5060739;28;20430;-60
2023/05/04 04:19:22;;;;;;;25.77;11.63;;;;;;;;;;5069893;28;20041;-60
2023/05/04 04:21:48;;;;;;;24.33;11.73;;;;;;;;;;5071605;28;20044;-60
2023/05/04 04:24:14;;;;;;;20.03;11.53;;;;;;;;;;5070358;28;20056;-61
2023/05/04 04:26:40;;;;;;;24.50;11.93;;;;;;;;;;5071637;28;20040;-60
2023/05/04 04:29:06;;;;;;;22.10;11.73;;;;;;;;;;5068595;28;20048;-60
2023/05/04 04:31:32;;;;;;;23.63;11.53;;;;;;;;;;5062664;28;20059;-60
2023/05/04 04:33:58;;;;;;;22.57;11.47;;;;;;;;;;5069872;28;20063;-60
2023/05/04 04:36:24;;;;;;;19.60;11.00;;;;;;;;;;5069656;28;20047;-60
2023/05/04 04:38:51;;;;;;;17.33;10.17;;;;;;;;;;5060295;28;20439;-60
2023/05/04 04:41:17;;;;;;;23.60;11.90;;;;;;;;;;5050275;28;20049;-60
2023/05/04 04:43:43;;;;;;;21.13;11.57;;;;;;;;;;5066994;28;20048;-60
2023/05/04 04:46:09;;;;;;;22.77;11.90;;;;;;;;;;5061258;28;20106;-60
2023/05/04 04:48:35;;;;;;;28.43;12.23;;;;;;;;;;5050991;28;20060;-60
2023/05/04 04:51:01;;;;;;;22.30;10.77;;;;;;;;;;5052584;28;20395;-60
2023/05/04 04:53:27;;;;;;;30.07;12.10;;;;;;;;;;5069187;28;20066;-60
2023/05/04 04:55:53;;;;;;;20.57;11.10;;;;;;;;;;5052988;28;20471;-60
2023/05/04 04:58:19;;;;;;;28.40;12.57;;;;;;;;;;5050176;28;20416;-60
2023/05/04 05:00:46;;;;;;;29.23;12.47;;;;;;;;;;5066558;28;20044;-60
2023/05/04 05:03:12;;;;;;;26.23;12.30;;;;;;;;;;5050990;28;20406;-59
2023/05/04 05:05:38;;;;;;;22.17;11.33;;;;;;;;;;5070029;28;20056;-59
2023/05/04 05:08:04;;;;;;;20.97;11.10;;;;;;;;;;5068499;28;20372;-59
2023/05/04 05:10:30;;;;;;;19.73;11.83;;;;;;;;;;5069638;28;20053;-60
2023/05/04 05:12:56;;;;;;;19.17;11.43;;;;;;;;;;5066667;28;20071;-61
2023/05/04 05:15:22;;;;;;;29.83;11.97;;;;;;;;;;5049161;28;20049;-60
2023/05/04 05:17:48;;;;;;;20.97;11.47;;;;;;;;;;5048701;28;20524;-61
2023/05/04 05:20:14;;;;;;;18.57;10.40;;;;;;;;;;5049684;28;20392;-60
2023/05/04 05:22:41;;;;;;;18.57;10.90;;;;;;;;;;5048569;28;20499;-60
2023/05/04 05:25:07;;;;;;;27.90;11.90;;;;;;;;;;5058408;28;20099;-60
2023/05/04 05:27:34;;;;;;;22.40;12.67;;;;;;;;;;5062315;28;20044;-61
2023/05/04 05:30:01;;;;;;;22.07;11.50;;;;;;;;;;5058275;28;20529;-61
2023/05/04 05:32:27;;;;;;;20.00;10.33;;;;;;;;;;5069311;28;20493;-60
2023/05/04 05:34:53;;;;;;;17.70;11.03;;;;;;;;;;5068114;28;20132;-61
2023/05/04 05:37:19;;;;;;;20.27;11.13;;;;;;;;;;5059383;28;20056;-60
2023/05/04 05:39:45;;;;;;;19.20;10.70;;;;;;;;;;5063012;28;20052;-60
2023/05/04 05:42:11;;;;;;;17.57;10.90;;;;;;;;;;5048481;28;20033;-60
2023/05/04 05:44:37;;;;;;;17.33;10.47;;;;;;;;;;5067558;28;20526;-61
2023/05/04 05:47:04;;;;;;;18.90;10.77;;;;;;;;;;5068697;28;20040;-60
2023/05/04 05:49:30;;;;;;;17.63;9.93;;;;;;;;;;5064975;28;20045;-60
2023/05/04 05:52:00;;;;;;;21.60;11.30;;;;;;;;;;5068737;28;20048;-60
2023/05/04 05:54:26;;;;;;;21.97;10.70;;;;;;;;;;5067910;28;20056;-60
2023/05/04 05:56:52;;;;;;;16.43;9.73;;;;;;;;;;5060514;28;20040;-61
2023/05/04 05:59:18;;;;;;;16.37;9.37;;;;;;;;;;5063090;28;20057;-60
2023/05/04 06:01:44;;;;;;;15.03;9.97;;;;;;;;;;5047826;28;20040;-61
2023/05/04 06:04:10;;;;;;;18.33;9.83;;;;;;;;;;5066711;28;20052;-60
2023/05/04 06:06:36;;;;;;;16.10;9.53;;;;;;;;;;5050677;28;20052;-61
2023/05/04 06:09:02;;;;;;;19.50;10.87;;;;;;;;;;5065136;28;20090;-61
2023/05/04 06:11:29;;;;;;;21.83;9.57;;;;;;;;;;5051828;28;20052;-61
2023/05/04 06:13:55;;;;;;;16.20;9.43;;;;;;;;;;5048300;28;20103;-61
2023/05/04 06:16:21;;;;;;;16.80;9.90;;;;;;;;;;5048109;28;20124;-61
2023/05/04 06:18:47;;;;;;;20.70;10.00;;;;;;;;;;5050910;28;20353;-61
2023/05/04 06:21:13;;;;;;;16.30;8.90;;;;;;;;;;5057973;28;20498;-61
2023/05/04 06:23:39;;;;;;;17.63;9.00;;;;;;;;;;5060397;28;20052;-61
2023/05/04 06:26:06;;;;;;;15.20;9.27;;;;;;;;;;5052796;28;20045;-61
2023/05/04 06:28:33;;;;;;;18.83;10.57;;;;;;;;;;5055700;28;20514;-60
2023/05/04 06:30:59;;;;;;;15.23;8.87;;;;;;;;;;5054559;28;20053;-60
2023/05/04 06:33:25;;;;;;;13.60;8.37;;;;;;;;;;5056539;28;20064;-61
2023/05/04 06:35:52;;;;;;;15.00;9.57;;;;;;;;;;5058455;28;20179;-61
2023/05/04 06:38:18;;;;;;;18.57;9.33;;;;;;;;;;5061469;28;20052;-61
2023/05/04 06:40:44;;;;;;;15.80;8.83;;;;;;;;;;5058036;28;20045;-61
2023/05/04 06:43:10;;;;;;;15.20;9.23;;;;;;;;;;5059781;28;20056;-61
2023/05/04 06:45:36;;;;;;;15.00;9.10;;;;;;;;;;5059924;28;20189;-61
2023/05/04 06:48:03;;;;;;;19.20;8.43;;;;;;;;;;5061690;28;20040;-61
2023/05/04 06:50:29;;;;;;;14.17;8.47;;;;;;;;;;5058205;28;20044;-61
2023/05/04 06:53:07;;;;;;;14.13;8.00;;;;;;;;;;5056605;28;20190;-61
2023/05/04 06:55:34;;;;;;;13.43;8.00;;;;;;;;;;5058596;28;20559;-61
2023/05/04 06:58:00;;;;;;;13.20;7.67;;;;;;;;;;5061824;28;20192;-61
2023/05/04 07:00:26;;;;;;;12.33;7.67;;;;;;;;;;5060845;28;20052;-61
2023/05/04 07:02:52;;;;;;;14.97;7.60;;;;;;;;;;5061950;28;20037;-61
2023/05/04 07:05:20;;;;;;;11.10;7.77;;;;;;;;;;5059728;28;20048;-61
2023/05/04 07:07:46;;;;;;;10.43;6.70;;;;;;;;;;5061056;28;20041;-61
2023/05/04 07:10:13;;;;;;;14.43;7.10;;;;;;;;;;5059277;28;20102;-60
2023/05/04 07:12:40;;;;;;;11.67;6.77;;;;;;;;;;5057609;28;20052;-60
2023/05/04 07:15:07;;;;;;;12.00;6.97;;;;;;;;;;5056979;28;20045;-61
2023/05/04 07:17:33;;;;;;;16.77;7.33;;;;;;;;;;5060398;28;20120;-61
2023/05/04 07:20:02;;;;;;;14.27;7.53;;;;;;;;;;5059824;28;20160;-61
2023/05/04 07:22:28;;;;;;;14.43;6.90;;;;;;;;;;5052502;28;20044;-61
2023/05/04 07:24:56;;;;;;;11.57;7.70;;;;;;;;;;5055638;28;20048;-61
2023/05/04 07:27:22;;;;;;;16.07;7.33;;;;;;;;;;5057688;28;20043;-61
2023/05/04 07:29:49;;;;;;;16.77;7.57;;;;;;;;;;5059231;28;20053;-61
2023/05/04 07:32:16;;;;;;;12.00;6.80;;;;;;;;;;5056983;28;20049;-61
2023/05/04 07:34:43;;;;;;;13.93;8.00;;;;;;;;;;5057580;28;20048;-61
2023/05/04 07:37:09;;;;;;;13.03;6.83;;;;;;;;;;5060056;28;20083;-61
2023/05/04 07:39:35;;;;;;;11.73;6.90;;;;;;;;;;5057493;28;20089;-61
2023/05/04 07:42:05;;;;;;;14.57;7.67;;;;;;;;;;5053031;28;20070;-61
2023/05/04 07:44:31;;;;;;;14.93;7.00;;;;;;;;;;5056384;28;20043;-61
2023/05/04 07:46:58;;;;;;;10.87;7.00;;;;;;;;;;5060817;28;20052;-61
2023/05/04 07:49:24;;;;;;;11.63;6.57;;;;;;;;;;5063898;28;20040;-61
2023/05/04 07:51:50;;;;;;;8.60;6.27;;;;;;;;;;5061213;28;20383;-61
2023/05/04 07:54:16;;;;;;;8.73;6.03;;;;;;;;;;5062017;28;20045;-61
2023/05/04 07:56:42;;;;;;;13.00;6.10;;;;;;;;;;5061386;28;20037;-61
2023/05/04 07:59:08;;;;;;;11.20;5.97;;;;;;;;;;5063993;28;20055;-61
2023/05/04 08:01:34;;;;;;;9.90;6.23;;;;;;;;;;5062147;28;20045;-61
2023/05/04 08:04:00;;;;;;;13.27;5.83;;;;;;;;;;5058434;28;20036;-61
2023/05/04 08:06:26;;;;;;;7.83;5.27;;;;;;;;;;5061877;28;20360;-61
2023/05/04 08:08:52;;;;;;;9.33;5.60;;;;;;;;;;5070956;28;20128;-60
2023/05/04 08:11:18;;;;;;;9.63;5.50;;;;;;;;;;5070556;28;20095;-61
2023/05/04 08:13:45;;;;;;;10.17;6.10;;;;;;;;;;5064575;28;20040;-61
2023/05/04 08:16:11;;;;;;;10.47;5.63;;;;;;;;;;5059477;28;20064;-61
2023/05/04 08:18:37;;;;;;;9.50;6.03;;;;;;;;;;5060100;28;20037;-61
2023/05/04 08:21:04;;;;;;;9.47;5.27;;;;;;;;;;5060729;28;20045;-61
2023/05/04 08:23:30;;;;;;;9.97;5.60;;;;;;;;;;5058861;28;20403;-61
2023/05/04 08:25:56;;;;;;;9.97;5.50;;;;;;;;;;5059960;28;20043;-61
2023/05/04 08:28:23;;;;;;;7.60;5.83;;;;;;;;;;5052524;28;20044;-61
2023/05/04 08:30:49;;;;;;;12.40;5.73;;;;;;;;;;5058611;28;20052;-61
2023/05/04 08:33:15;;;;;;;10.13;5.63;;;;;;;;;;5059594;28;20048;-61
2023/05/04 08:35:42;;;;;;;9.27;5.20;;;;;;;;;;5058605;28;20048;-61
2023/05/04 08:38:08;;;;;;;11.70;5.17;;;;;;;;;;5059057;28;20132;-61
2023/05/04 08:40:34;;;;;;;10.33;5.73;;;;;;;;;;5059765;28;20056;-61
2023/05/04 08:43:01;;;;;;;10.03;4.77;;;;;;;;;;5059602;28;20985;-61
2023/05/04 08:45:28;;;;;;;9.23;5.30;;;;;;;;;;5058059;28;20063;-61
2023/05/04 08:47:54;;;;;;;10.30;5.27;;;;;;;;;;5058544;28;20045;-61
2023/05/04 08:50:20;;;;;;;8.40;4.97;;;;;;;;;;5057602;28;20057;-61
2023/05/04 08:52:46;;;;;;;10.23;5.30;;;;;;;;;;5056961;28;20142;-61
2023/05/04 08:55:13;;;;;;;10.90;5.40;;;;;;;;;;5058909;28;21136;-61
2023/05/04 08:57:41;;;;;;;12.27;5.00;;;;;;;;;;5068543;28;20053;-61
2023/05/04 09:00:08;;;;;;;8.70;4.93;;;;;;;;;;5069796;28;20490;-61
2023/05/04 09:02:34;;;;;;;7.87;4.77;;;;;;;;;;5069663;28;20045;-61
2023/05/04 09:05:01;;;;;;;9.10;4.87;;;;;;;;;;5058191;28;20403;-62
2023/05/04 09:07:27;;;;;;;11.13;4.70;;;;;;;;;;5060514;28;20389;-59
2023/05/04 09:09:53;;;;;;;14.20;4.73;;;;;;;;;;5069419;28;20041;-60
2023/05/04 09:12:19;;;;;;;11.47;4.87;;;;;;;;;;5069419;28;20049;-61
2023/05/04 09:14:46;;;;;;;9.50;5.00;;;;;;;;;;5068259;28;20479;-61
2023/05/04 09:17:13;;;;;;;8.90;4.53;;;;;;;;;;5069065;28;20048;-60
2023/05/04 09:19:42;;;;;;;7.43;3.83;;;;;;;;;;5069164;28;20044;-60
2023/05/04 09:22:18;;;;;;;7.03;4.37;;;;;;;;;;5068146;28;20415;-62
2023/05/04 09:24:45;;;;;;;7.87;4.20;;;;;;;;;;5068971;28;20131;-61
2023/05/04 09:27:12;;;;;;;6.80;4.27;;;;;;;;;;5058102;28;20041;-61
2023/05/04 09:29:39;;;;;;;8.80;4.10;;;;;;;;;;5055845;28;20080;-61
2023/05/04 09:32:06;;;;;;;9.37;4.40;;;;;;;;;;5057701;28;20127;-61
2023/05/04 09:34:33;;;;;;;11.93;4.60;;;;;;;;;;5056310;28;20804;-62
2023/05/04 09:37:00;;;;;;;5.70;4.00;;;;;;;;;;5062158;28;20049;-61
2023/05/04 09:39:26;;;;;;;8.73;4.33;;;;;;;;;;5061681;28;20091;-61
2023/05/04 09:41:52;;;;;;;8.43;4.20;;;;;;;;;;5056297;28;20094;-60
2023/05/04 09:44:22;;;;;;;8.60;4.90;;;;;;;;;;5054150;28;20567;-61
2023/05/04 09:46:55;;;;;;;9.47;4.83;;;;;;;;;;5048652;28;20049;-61
2023/05/04 09:49:37;;;;;;;10.57;4.30;;;;;;;;;;5049147;28;20737;-61
2023/05/04 09:52:04;;;;;;;8.55;4.90;;;;;;;;;;5048784;28;20048;-60
2023/05/04 09:54:33;;;;;;;5.30;4.10;;;;;;;;;;5048692;28;20518;-61
2023/05/04 09:57:12;;;;;;;12.47;4.93;;;;;;;;;;5049013;28;20056;-61
2023/05/04 09:59:39;;;;;;;10.30;3.80;;;;;;;;;;5048863;28;20693;-60
2023/05/04 10:02:11;;;;;;;8.53;4.60;;;;;;;;;;5048452;28;20455;-61
2023/05/04 10:04:37;;;;;;;9.60;4.32;;;;;;;;;;5049150;28;20049;-61
2023/05/04 10:07:04;;;;;;;8.27;4.87;;;;;;;;;;5049025;28;20041;-61
2023/05/04 10:09:30;;;;;;;9.07;4.00;;;;;;;;;;5048928;28;20041;-61
2023/05/04 10:12:00;;;;;;;11.00;4.10;;;;;;;;;;5048564;28;20044;-60
2023/05/04 10:14:30;;;;;;;12.97;5.33;;;;;;;;;;5048752;28;20574;-61
2023/05/04 10:17:02;;;;;;;5.83;3.80;;;;;;;;;;5048659;28;20132;-61
2023/05/04 10:19:28;;;;;;;10.13;4.47;;;;;;;;;;5053558;28;20405;-61
2023/05/04 10:22:00;;;;;;;8.53;3.87;;;;;;;;;;5054649;28;20570;-61
2023/05/04 10:24:45;;;;;;;8.40;3.65;;;;;;;;;;5057495;28;20102;-60
2023/05/04 10:27:17;;;;;;;9.63;3.80;;;;;;;;;;5055739;28;20041;-60
2023/05/04 10:29:48;;;;;;;6.60;3.75;;;;;;;;;;5056912;28;20506;-60
2023/05/04 10:32:22;;;;;;;8.17;3.93;;;;;;;;;;5055683;28;20048;-61
2023/05/04 10:34:48;;;;;;;9.90;3.90;;;;;;;;;;5054670;28;20538;-60
2023/05/04 10:37:18;;;;;;;5.40;3.67;;;;;;;;;;5056886;28;20107;-62
2023/05/04 10:39:51;;;;;;;8.47;4.37;;;;;;;;;;5056423;28;20160;-61
2023/05/04 10:42:17;;;;;;;6.87;3.60;;;;;;;;;;5055955;28;20053;-61
2023/05/04 10:44:53;;;;;;;7.17;3.80;;;;;;;;;;5052223;28;20118;-62
2023/05/04 10:47:33;;;;;;;9.37;3.63;;;;;;;;;;5065470;28;20070;-61
2023/05/04 10:50:05;;;;;;;8.30;3.67;;;;;;;;;;5061728;28;20561;-62
2023/05/04 10:52:47;;;;;;;9.57;3.05;;;;;;;;;;5060161;28;20413;-62
2023/05/04 10:55:14;;;;;;;10.32;4.20;;;;;;;;;;5068692;28;20082;-61
2023/05/04 10:57:54;;;;;;;8.13;4.00;;;;;;;;;;5052758;28;20045;-61
2023/05/04 11:00:20;;;;;;;6.05;3.75;;;;;;;;;;5053931;28;20041;-60
2023/05/04 11:02:47;;;;;;;12.20;4.63;;;;;;;;;;5053991;28;20533;-61
2023/05/04 11:05:18;;;;;;;6.47;4.68;;;;;;;;;;5057649;28;20120;-60
2023/05/04 11:07:45;;;;;;;7.82;4.28;;;;;;;;;;5048880;28;20052;-60
2023/05/04 11:10:21;;;;;;;9.40;3.60;;;;;;;;;;5047684;28;20037;-62
2023/05/04 11:12:47;;;;;;;6.72;3.53;;;;;;;;;;5048385;28;20048;-62
2023/05/04 11:15:13;;;;;;;7.20;3.63;;;;;;;;;;5048156;28;20056;-63
2023/05/04 11:17:51;;;;;;;5.63;3.13;;;;;;;;;;5048645;28;20487;-62
2023/05/04 11:20:26;;;;;;;6.80;3.28;;;;;;;;;;5063328;28;20045;-61
2023/05/04 11:22:53;;;;;;;6.60;3.58;;;;;;;;;;5055934;28;20052;-61
2023/05/04 11:25:26;;;;;;;10.90;4.65;;;;;;;;;;5059880;28;20060;-61
2023/05/04 11:27:52;;;;;;;;;;;;;;;;;;5059477;28;20049;-61
2023/05/04 11:30:19;;;;;;;8.50;3.80;;;;;;;;;;5061338;28;19928;-61
2023/05/04 11:32:52;;;;;;;8.27;3.28;;;;;;;;;;5066420;28;20063;-61
2023/05/04 11:35:23;;;;;;;8.40;3.63;;;;;;;;;;5060665;28;20456;-61
2023/05/04 11:37:49;;;;;;;8.63;3.67;;;;;;;;;;5059548;28;20055;-61
2023/05/04 11:40:21;;;;;;;9.30;3.67;;;;;;;;;;5061963;28;20039;-61
2023/05/04 11:42:48;;;;;;;6.05;3.33;;;;;;;;;;5061722;28;20048;-61
2023/05/04 11:45:25;;;;;;;7.25;3.78;;;;;;;;;;5071066;28;20055;-61
2023/05/04 11:47:52;;;;;;;8.52;3.28;;;;;;;;;;5071209;28;20044;-61
2023/05/04 11:50:19;;;;;;;6.45;3.35;;;;;;;;;;5067984;28;20411;-61
2023/05/04 11:52:46;;;;;;;7.45;2.95;;;;;;;;;;5062888;28;20049;-61
2023/05/04 11:55:13;;;;;;;5.22;3.30;;;;;;;;;;5055678;28;20076;-61
2023/05/04 11:57:39;;;;;;;9.45;3.45;;;;;;;;;;5061495;28;20052;-61
2023/05/04 12:00:06;;;;;;;6.30;3.28;;;;;;;;;;5061607;28;20506;-61
2023/05/04 12:02:32;;;;;;;8.77;3.05;;;;;;;;;;5057970;28;20491;-61
2023/05/04 12:04:58;;;;;;;8.48;2.95;;;;;;;;;;5060226;28;20044;-61
2023/05/04 12:07:25;;;;;;;7.80;3.15;;;;;;;;;;5057964;28;20047;-61
2023/05/04 12:09:51;;;;;;;7.22;3.03;;;;;;;;;;5056227;28;20063;-61
2023/05/04 12:12:19;;;;;;;6.93;2.78;;;;;;;;;;5061021;28;20784;-61
2023/05/04 12:14:52;;;;;;;7.40;2.80;;;;;;;;;;5055002;28;20164;-60
2023/05/04 12:17:19;;;;;;;6.30;2.55;;;;;;;;;;5059034;28;20076;-60
2023/05/04 12:19:50;;;;;;;4.95;2.67;;;;;;;;;;5059469;28;20040;-60
2023/05/04 12:22:16;;;;;;;4.85;2.83;;;;;;;;;;5061253;28;20055;-59
2023/05/04 12:24:42;;;;;;;5.60;2.47;;;;;;;;;;5058057;28;20041;-60
2023/05/04 12:27:14;;;;;;;5.63;2.33;;;;;;;;;;5058465;28;20037;-61
2023/05/04 12:29:40;;;;;;;9.55;3.08;;;;;;;;;;5056207;28;20061;-61
2023/05/04 12:32:07;;;;;;;9.73;2.92;;;;;;;;;;5052240;28;20600;-61
2023/05/04 12:34:33;;;;;;;7.05;2.40;;;;;;;;;;5058234;28;20041;-61
2023/05/04 12:36:59;;;;;;;6.15;2.90;;;;;;;;;;5059539;28;20056;-61
2023/05/04 12:39:27;;;;;;;4.65;2.33;;;;;;;;;;5059316;28;20471;-61
2023/05/04 12:41:53;;;;;;;5.95;3.00;;;;;;;;;;5057526;28;20128;-61
2023/05/04 12:44:19;;;;;;;6.38;3.10;;;;;;;;;;5061761;28;20422;-61
2023/05/04 12:46:45;;;;;;;6.13;2.97;;;;;;;;;;5060667;28;20036;-61
2023/05/04 12:49:13;;;;;;;5.20;2.72;;;;;;;;;;5055355;28;20040;-61
2023/05/04 12:51:39;;;;;;;4.45;2.78;;;;;;;;;;5052244;28;20045;-61
2023/05/04 12:54:05;;;;;;;6.53;3.53;;;;;;;;;;5058426;28;20049;-61
2023/05/04 12:56:33;;;;;;;8.38;3.20;;;;;;;;;;5059545;28;20159;-60
2023/05/04 12:58:59;;;;;;;4.80;2.47;;;;;;;;;;5058096;28;20136;-61
2023/05/04 13:01:28;;;;;;;5.85;2.70;;;;;;;;;;5054884;28;20123;-61
2023/05/04 13:03:54;;;;;;;5.75;3.22;;;;;;;;;;5061125;28;20056;-61
2023/05/04 13:06:20;;;;;;;6.05;2.60;;;;;;;;;;5061581;28;20400;-61
2023/05/04 13:08:47;;;;;;;7.50;3.25;;;;;;;;;;5057697;28;20048;-61
2023/05/04 13:11:17;;;;;;;7.90;3.22;;;;;;;;;;5059040;28;20045;-61
2023/05/04 13:13:44;;;;;;;7.07;3.00;;;;;;;;;;5059891;28;20448;-61
2023/05/04 13:16:11;;;;;;;9.63;4.00;;;;;;;;;;5059933;28;20095;-61
2023/05/04 13:18:37;;;;;;;4.95;3.45;;;;;;;;;;5057880;28;20076;-61
2023/05/04 13:21:03;;;;;;;7.55;3.60;;;;;;;;;;5059167;28;20040;-61
2023/05/04 13:23:30;;;;;;;8.82;3.83;;;;;;;;;;5056916;28;20055;-61
2023/05/04 13:25:56;;;;;;;5.18;3.38;;;;;;;;;;5058252;28;20044;-61
2023/05/04 13:28:22;;;;;;;10.52;3.10;;;;;;;;;;5058561;28;20053;-61
2023/05/04 13:30:49;;;;;;;6.95;3.53;;;;;;;;;;5059635;28;20052;-60
2023/05/04 13:33:15;;;;;;;5.38;3.35;;;;;;;;;;5069572;28;20044;-61
2023/05/04 13:35:41;;;;;;;6.45;3.33;;;;;;;;;;5068933;28;20566;-60
2023/05/04 13:38:08;;;;;;;9.77;3.28;;;;;;;;;;5068930;28;20044;-60
2023/05/04 13:40:34;;;;;;;6.55;3.30;;;;;;;;;;5069125;28;20055;-60
2023/05/04 13:43:00;;;;;;;8.57;3.10;;;;;;;;;;5068128;28;20044;-60
2023/05/04 13:45:26;;;;;;;6.53;3.70;;;;;;;;;;5069006;28;20063;-60
2023/05/04 13:47:52;;;;;;;5.75;3.17;;;;;;;;;;5068723;28;20041;-59
2023/05/04 13:50:18;;;;;;;6.38;3.90;;;;;;;;;;5068936;28;20044;-60
2023/05/04 13:52:44;;;;;;;5.90;3.42;;;;;;;;;;5068737;28;20106;-60
2023/05/04 13:55:11;;;;;;;5.55;3.75;;;;;;;;;;5049861;28;20045;-60
2023/05/04 13:57:37;;;;;;;7.40;3.65;;;;;;;;;;5048470;28;20542;-59
2023/05/04 14:00:05;;;;;;;7.28;3.53;;;;;;;;;;5048988;28;20068;-60
2023/05/04 14:02:31;;;;;;;11.30;3.92;;;;;;;;;;5048567;28;20126;-60
2023/05/04 14:04:57;;;;;;;7.45;3.45;;;;;;;;;;5048154;28;20041;-60
2023/05/04 14:07:23;;;;;;;8.38;3.63;;;;;;;;;;5048597;28;20103;-60
2023/05/04 14:09:50;;;;;;;5.93;3.05;;;;;;;;;;5049974;28;20048;-60
2023/05/04 14:12:18;;;;;;;7.40;3.65;;;;;;;;;;5067726;28;20048;-60
2023/05/04 14:14:44;;;;;;;9.00;3.35;;;;;;;;;;5066470;28;20584;-60
2023/05/04 14:17:11;;;;;;;5.35;3.20;;;;;;;;;;5066843;28;20057;-60
2023/05/04 14:19:37;;;;;;;13.18;3.72;;;;;;;;;;5067213;28;20160;-62
2023/05/04 14:22:03;;;;;;;5.78;3.38;;;;;;;;;;5066807;28;20567;-60
2023/05/04 14:24:30;;;;;;;5.13;3.10;;;;;;;;;;5065532;28;20076;-60
2023/05/04 14:26:56;;;;;;;8.35;3.10;;;;;;;;;;5064864;28;20126;-60
2023/05/04 14:29:22;;;;;;;9.30;3.00;;;;;;;;;;5065933;28;20065;-60